Time;durP1;ratioP1;P1;durP2;ratioP2;P2;SDS_P1;SDS_P2;PMS_P1;PMS_P2;Temp;Humidity;BMP_temperature;BMP_pressure;BME280_temperature;BME280_humidity;BME280_pressure;Samples;Min_cycle;Max_cycle;Signal;HPM_P1;HPM_P2
2022/04/11 00:00:27;;;;;;;6.47;1.75;;;;;;;2.61;76.31;101460.44;7390816;19;20373;-63
2022/04/11 00:02:55;;;;;;;8.00;1.90;;;;;;;2.58;76.27;101460.38;7391273;19;20031;-64
2022/04/11 00:05:24;;;;;;;8.45;2.30;;;;;;;2.53;76.26;101459.41;7391071;19;20014;-64
2022/04/11 00:07:55;;;;;;;7.05;1.95;;;;;;;2.48;76.61;101466.16;7393233;19;20023;-63
2022/04/11 00:10:23;;;;;;;7.55;2.15;;;;;;;2.43;76.78;101466.06;7398790;19;20018;-64
2022/04/11 00:12:51;;;;;;;4.43;1.60;;;;;;;2.40;76.63;101456.53;7397782;19;20023;-63
2022/04/11 00:15:19;;;;;;;8.07;1.90;;;;;;;2.35;76.90;101459.81;7399780;19;20372;-64
2022/04/11 00:17:47;;;;;;;6.60;1.90;;;;;;;2.28;76.81;101456.22;7400282;19;20423;-64
2022/04/11 00:20:15;;;;;;;8.27;2.22;;;;;;;2.25;76.79;101457.03;7399300;19;20018;-65
2022/04/11 00:22:43;;;;;;;4.05;2.00;;;;;;;2.22;76.99;101458.66;7397597;19;20035;-64
2022/04/11 00:25:14;;;;;;;8.73;2.40;;;;;;;2.17;77.07;101450.78;7399554;19;20027;-64
2022/04/11 00:27:49;;;;;;;3.63;2.17;;;;;;;2.13;77.34;101448.09;7397888;19;20011;-64
2022/04/11 00:30:17;;;;;;;7.20;2.42;;;;;;;2.09;77.51;101454.91;7397164;19;20022;-64
2022/04/11 00:32:46;;;;;;;7.95;2.40;;;;;;;2.03;77.48;101455.63;7397438;19;20036;-64
2022/04/11 00:35:15;;;;;;;4.78;2.03;;;;;;;1.99;77.69;101458.97;7399318;19;20537;-64
2022/04/11 00:37:43;;;;;;;5.85;2.47;;;;;;;1.94;77.73;101458.84;7399601;19;20026;-64
2022/04/11 00:40:15;;;;;;;9.93;2.55;;;;;;;1.83;77.94;101447.34;7396914;19;20022;-64
2022/04/11 00:42:43;;;;;;;7.90;2.08;;;;;;;1.84;77.92;101448.25;7397497;19;20019;-64
2022/04/11 00:45:12;;;;;;;8.10;2.25;;;;;;;1.84;77.95;101451.69;7399345;19;20027;-64
2022/04/11 00:47:40;;;;;;;5.22;2.08;;;;;;;1.79;78.03;101454.19;7396910;19;20022;-65
2022/04/11 00:50:10;;;;;;;6.50;2.38;;;;;;;1.77;78.39;101448.09;7396245;19;20478;-63
2022/04/11 00:52:42;;;;;;;5.07;2.00;;;;;;;1.73;78.44;101456.63;7396487;19;20509;-63
2022/04/11 00:55:11;;;;;;;5.57;2.50;;;;;;;1.69;78.44;101454.75;7399400;19;20018;-63
2022/04/11 00:57:42;;;;;;;6.18;2.47;;;;;;;1.66;78.53;101448.66;7396618;19;20023;-63
2022/04/11 01:00:13;;;;;;;5.30;2.53;;;;;;;1.61;78.78;101451.97;7396938;19;20019;-63
2022/04/11 01:02:41;;;;;;;4.25;2.53;;;;;;;1.57;78.75;101455.31;7399232;19;20018;-65
2022/04/11 01:05:10;;;;;;;9.48;2.53;;;;;;;1.53;78.91;101455.19;7398637;19;20033;-65
2022/04/11 01:07:39;;;;;;;5.95;2.40;;;;;;;1.49;79.18;101455.94;7398655;19;20025;-67
2022/04/11 01:10:08;;;;;;;6.75;2.40;;;;;;;1.43;79.43;101462.72;7397692;19;20018;-67
2022/04/11 01:12:37;;;;;;;4.55;2.17;;;;;;;1.36;79.38;101457.31;7397942;19;20019;-67
2022/04/11 01:15:08;;;;;;;8.25;2.83;;;;;;;1.31;79.38;101464.94;7398391;19;20036;-65
2022/04/11 01:17:38;;;;;;;5.72;2.63;;;;;;;1.24;79.85;101457.84;7398381;19;20023;-65
2022/04/11 01:20:11;;;;;;;8.68;4.20;;;;;;;1.18;79.83;101461.16;7394923;19;20014;-66
2022/04/11 01:22:42;;;;;;;7.03;4.13;;;;;;;1.12;79.92;101456.66;7398175;19;20018;-65
2022/04/11 01:25:12;;;;;;;7.78;4.32;;;;;;;1.06;80.33;101453.94;7396793;19;20019;-65
2022/04/11 01:27:41;;;;;;;7.57;3.10;;;;;;;1.02;80.49;101446.91;7395480;19;20452;-65
2022/04/11 01:30:12;;;;;;;11.23;2.78;;;;;;;0.98;80.47;101450.25;7395591;19;20035;-66
2022/04/11 01:32:41;;;;;;;7.28;2.92;;;;;;;0.94;80.59;101448.41;7398175;19;20032;-65
2022/04/11 01:35:20;;;;;;;9.68;3.17;;;;;;;0.90;80.62;101449.16;7397623;19;20018;-66
2022/04/11 01:37:50;;;;;;;9.30;3.15;;;;;;;0.84;80.79;101456.72;7398037;19;20027;-65
2022/04/11 01:40:19;;;;;;;6.82;3.70;;;;;;;0.81;80.94;101460.97;7396429;19;20519;-64
2022/04/11 01:42:47;;;;;;;5.93;2.90;;;;;;;0.78;81.39;101468.63;7395545;19;20043;-66
2022/04/11 01:45:16;;;;;;;10.23;3.10;;;;;;;0.75;81.41;101457.31;7395431;19;20026;-65
2022/04/11 01:47:46;;;;;;;7.75;3.38;;;;;;;0.66;81.19;101450.16;7395456;19;20018;-66
2022/04/11 01:50:14;;;;;;;6.13;3.03;;;;;;;0.67;81.29;101457.09;7397310;19;20388;-65
2022/04/11 01:52:42;;;;;;;8.57;3.17;;;;;;;0.63;81.66;101455.22;7398441;19;20027;-68
2022/04/11 01:55:13;;;;;;;6.78;3.22;;;;;;;0.59;82.02;101459.41;7395968;19;20040;-65
2022/04/11 01:57:41;;;;;;;8.60;4.07;;;;;;;0.54;81.87;101457.53;7397351;19;20035;-65
2022/04/11 02:00:11;;;;;;;8.52;3.30;;;;;;;0.52;82.16;101457.50;7394551;19;20384;-65
2022/04/11 02:02:39;;;;;;;7.97;2.55;;;;;;;0.48;82.25;101458.22;7396754;19;20018;-65
2022/04/11 02:05:08;;;;;;;5.72;2.75;;;;;;;0.45;82.43;101455.53;7394909;19;20022;-65
2022/04/11 02:07:36;;;;;;;7.32;3.13;;;;;;;0.41;82.35;101456.28;7396655;19;20022;-65
2022/04/11 02:10:05;;;;;;;8.50;3.30;;;;;;;0.38;82.64;101464.81;7395228;19;20026;-65
2022/04/11 02:12:36;;;;;;;8.32;3.28;;;;;;;0.33;82.71;101456.06;7396464;19;20031;-65
2022/04/11 02:15:04;;;;;;;10.73;3.58;;;;;;;0.30;82.76;101461.09;7396775;19;20445;-65
2022/04/11 02:17:32;;;;;;;8.45;3.08;;;;;;;0.27;82.78;101466.19;7394666;19;20032;-65
2022/04/11 02:20:00;;;;;;;9.48;3.42;;;;;;;0.25;82.90;101454.91;7394328;19;20027;-65
2022/04/11 02:22:29;;;;;;;6.47;3.08;;;;;;;0.21;82.89;101456.50;7395786;19;20014;-64
2022/04/11 02:24:57;;;;;;;9.05;4.10;;;;;;;0.19;83.05;101457.28;7396058;19;20086;-64
2022/04/11 02:27:25;;;;;;;8.25;3.47;;;;;;;0.15;82.82;101457.22;7394503;19;20419;-64
2022/04/11 02:29:56;;;;;;;7.93;3.33;;;;;;;0.15;82.83;101458.91;7395312;19;20026;-64
2022/04/11 02:32:24;;;;;;;6.63;3.15;;;;;;;0.13;83.07;101461.44;7393743;19;20031;-65
2022/04/11 02:34:52;;;;;;;6.28;3.85;;;;;;;0.09;83.01;101461.28;7396645;19;20019;-66
2022/04/11 02:37:21;;;;;;;11.35;3.80;;;;;;;0.07;83.41;101468.09;7395212;19;20036;-64
2022/04/11 02:39:49;;;;;;;7.15;3.35;;;;;;;0.02;83.70;101465.38;7396499;19;20357;-64
2022/04/11 02:42:22;;;;;;;10.88;3.60;;;;;;;-0.01;83.21;101462.69;7393895;19;20023;-64
2022/04/11 02:44:51;;;;;;;6.07;3.13;;;;;;;-0.04;83.42;101457.41;7395837;19;20026;-65
2022/04/11 02:47:22;;;;;;;10.70;4.18;;;;;;;-0.05;83.20;101468.56;7395380;19;20018;-65
2022/04/11 02:49:51;;;;;;;6.88;3.97;;;;;;;-0.07;83.26;101460.78;7394511;19;20522;-65
2022/04/11 02:52:19;;;;;;;10.15;5.60;;;;;;;-0.08;83.34;101463.31;7395371;19;20031;-65
2022/04/11 02:54:47;;;;;;;13.43;7.05;;;;;;;-0.09;83.94;101464.13;7394991;19;20022;-64
2022/04/11 02:57:16;;;;;;;14.57;8.82;;;;;;;-0.11;83.70;101464.09;7394957;19;20106;-64
2022/04/11 02:59:44;;;;;;;11.93;6.28;;;;;;;-0.12;84.03;101464.91;7394562;19;20015;-64
2022/04/11 03:02:12;;;;;;;14.05;7.78;;;;;;;-0.14;84.04;101460.53;7394835;19;20022;-65
2022/04/11 03:04:43;;;;;;;8.25;4.78;;;;;;;-0.14;83.97;101463.09;7393031;19;20022;-65
2022/04/11 03:07:11;;;;;;;10.38;4.68;;;;;;;-0.15;83.99;101453.59;7395069;19;20018;-65
2022/04/11 03:09:40;;;;;;;8.10;3.67;;;;;;;-0.17;84.28;101463.88;7394326;19;20035;-65
2022/04/11 03:12:09;;;;;;;10.48;3.72;;;;;;;-0.19;84.83;101461.25;7392438;19;20389;-65
2022/04/11 03:14:44;;;;;;;7.97;3.90;;;;;;;-0.19;84.76;101465.50;7392915;19;20045;-65
2022/04/11 03:17:12;;;;;;;7.95;4.05;;;;;;;-0.22;84.92;101461.13;7392765;19;20376;-65
2022/04/11 03:19:43;;;;;;;9.68;4.03;;;;;;;-0.22;84.65;101462.84;7392505;19;20079;-65
2022/04/11 03:22:12;;;;;;;8.73;4.15;;;;;;;-0.25;84.77;101463.63;7394450;19;20014;-65
2022/04/11 03:24:40;;;;;;;10.00;4.30;;;;;;;-0.26;85.03;101464.44;7392083;19;20522;-65
2022/04/11 03:27:08;;;;;;;8.27;4.50;;;;;;;-0.28;85.20;101460.91;7392728;19;20039;-65
2022/04/11 03:29:36;;;;;;;9.32;4.15;;;;;;;-0.30;85.59;101460.00;7394464;19;20081;-65
2022/04/11 03:32:05;;;;;;;33.50;16.98;;;;;;;-0.31;85.60;101463.41;7392285;19;20015;-65
2022/04/11 03:34:34;;;;;;;9.77;4.57;;;;;;;-0.32;86.22;101461.66;7393546;19;20022;-64
2022/04/11 03:37:05;;;;;;;8.55;4.57;;;;;;;-0.33;86.00;101470.19;7393504;19;20027;-65
2022/04/11 03:39:33;;;;;;;9.23;4.85;;;;;;;-0.34;86.13;101466.75;7391508;19;20018;-64
2022/04/11 03:42:01;;;;;;;12.68;4.72;;;;;;;-0.35;86.63;101465.00;7390914;19;20019;-65
2022/04/11 03:44:29;;;;;;;10.85;4.90;;;;;;;-0.38;86.45;101469.16;7396292;19;20419;-65
2022/04/11 03:46:57;;;;;;;9.48;5.20;;;;;;;-0.38;86.53;101461.44;7401069;19;20019;-65
2022/04/11 03:49:26;;;;;;;10.55;4.90;;;;;;;-0.39;86.49;101469.97;7397975;19;20078;-64
2022/04/11 03:51:54;;;;;;;7.72;4.25;;;;;;;-0.40;86.44;101457.94;7397886;19;20022;-65
2022/04/11 03:54:24;;;;;;;9.00;5.22;;;;;;;-0.40;86.79;101465.69;7398066;19;20018;-65
2022/04/11 03:56:52;;;;;;;9.73;5.32;;;;;;;-0.41;86.24;101459.63;7398443;19;20026;-65
2022/04/11 03:59:20;;;;;;;9.38;4.72;;;;;;;-0.43;87.11;101462.97;7400613;19;20086;-65
2022/04/11 04:01:48;;;;;;;10.23;5.00;;;;;;;-0.45;86.95;101462.06;7398297;19;20110;-65
2022/04/11 04:04:17;;;;;;;9.18;5.65;;;;;;;-0.47;87.08;101458.53;7398565;19;20023;-65
2022/04/11 04:06:45;;;;;;;13.63;5.82;;;;;;;-0.49;87.50;101466.22;7400300;19;20036;-64
2022/04/11 04:09:13;;;;;;;13.68;5.93;;;;;;;-0.52;87.52;101458.38;7399558;19;20475;-63
2022/04/11 04:11:43;;;;;;;8.45;5.32;;;;;;;-0.54;87.13;101458.31;7397096;19;20026;-65
2022/04/11 04:14:12;;;;;;;6.57;5.25;;;;;;;-0.55;87.19;101461.72;7400444;19;20022;-65
2022/04/11 04:16:40;;;;;;;10.00;6.35;;;;;;;-0.57;87.54;101459.91;7399928;19;20011;-65
2022/04/11 04:19:08;;;;;;;8.95;6.18;;;;;;;-0.58;87.13;101465.88;7399804;19;20015;-65
2022/04/11 04:21:37;;;;;;;11.25;6.05;;;;;;;-0.60;87.52;101462.41;7397112;19;20014;-65
2022/04/11 04:24:05;;;;;;;10.02;6.22;;;;;;;-0.63;87.74;101467.41;7397329;19;20018;-65
2022/04/11 04:26:33;;;;;;;17.13;7.22;;;;;;;-0.67;87.67;101458.69;7398574;19;20010;-65
2022/04/11 04:29:04;;;;;;;11.25;6.28;;;;;;;-0.67;87.74;101463.84;7397289;19;20074;-65
2022/04/11 04:31:33;;;;;;;12.10;6.28;;;;;;;-0.68;87.98;101457.84;7396687;19;20082;-64
2022/04/11 04:34:01;;;;;;;13.32;7.07;;;;;;;-0.69;88.01;101456.06;7395853;19;20014;-65
2022/04/11 04:36:29;;;;;;;12.38;6.82;;;;;;;-0.68;87.86;101463.00;7396465;19;20035;-65
2022/04/11 04:38:57;;;;;;;12.93;7.70;;;;;;;-0.69;88.22;101456.06;7396890;19;20082;-65
2022/04/11 04:41:25;;;;;;;20.98;9.80;;;;;;;-0.68;88.31;101464.69;7397248;19;20073;-65
2022/04/11 04:43:53;;;;;;;17.45;8.80;;;;;;;-0.68;87.97;101463.00;7399070;19;20019;-65
2022/04/11 04:46:24;;;;;;;19.38;10.75;;;;;;;-0.67;87.66;101467.31;7399034;19;20026;-65
2022/04/11 04:48:52;;;;;;;22.48;12.15;;;;;;;-0.66;87.63;101469.09;7399170;19;20094;-65
2022/04/11 04:51:21;;;;;;;22.35;14.52;;;;;;;-0.63;87.80;101475.16;7395136;19;20090;-65
2022/04/11 04:53:49;;;;;;;27.05;14.15;;;;;;;-0.63;88.08;101470.91;7395740;19;20031;-65
2022/04/11 04:56:17;;;;;;;31.50;15.38;;;;;;;-0.62;87.92;101467.50;7398020;19;20082;-65
2022/04/11 04:58:47;;;;;;;28.60;16.08;;;;;;;-0.63;88.13;101467.41;7398971;19;20022;-65
2022/04/11 05:01:15;;;;;;;26.90;15.75;;;;;;;-0.58;87.83;101476.19;7395515;19;20070;-65
2022/04/11 05:03:46;;;;;;;22.83;14.32;;;;;;;-0.56;87.72;101479.72;7397732;19;20082;-66
2022/04/11 05:06:14;;;;;;;31.63;15.70;;;;;;;-0.54;87.84;101478.94;7397825;19;20044;-64
2022/04/11 05:08:42;;;;;;;28.08;15.07;;;;;;;-0.51;87.69;101483.34;7397437;19;20032;-65
2022/04/11 05:11:10;;;;;;;22.10;12.40;;;;;;;-0.48;87.99;101482.56;7396014;19;20022;-64
2022/04/11 05:13:40;;;;;;;22.10;12.50;;;;;;;-0.46;87.89;101479.22;7397993;19;20022;-63
2022/04/11 05:16:08;;;;;;;21.60;10.68;;;;;;;-0.43;88.09;101486.19;7395770;19;20015;-64
2022/04/11 05:18:36;;;;;;;18.80;10.57;;;;;;;-0.40;87.89;101478.56;7395510;19;20019;-66
2022/04/11 05:21:07;;;;;;;16.05;10.10;;;;;;;-0.36;87.72;101481.28;7396322;19;20074;-64
2022/04/11 05:23:35;;;;;;;14.88;10.52;;;;;;;-0.33;88.28;101488.25;7397260;19;20027;-64
2022/04/11 05:26:05;;;;;;;27.15;16.42;;;;;;;-0.28;87.81;101494.44;7397560;19;20022;-64
2022/04/11 05:28:33;;;;;;;21.85;12.02;;;;;;;-0.25;87.98;101492.00;7397181;19;20522;-65
2022/04/11 05:31:02;;;;;;;20.17;10.90;;;;;;;-0.21;87.89;101488.69;7396011;19;20525;-66
2022/04/11 05:33:30;;;;;;;16.83;10.00;;;;;;;-0.17;87.71;101490.53;7395158;19;20022;-64
2022/04/11 05:35:59;;;;;;;17.80;10.40;;;;;;;-0.11;87.48;101489.00;7397336;19;20087;-65
2022/04/11 05:38:29;;;;;;;14.27;9.52;;;;;;;-0.07;87.59;101485.72;7395141;19;20035;-65
2022/04/11 05:40:58;;;;;;;16.67;10.55;;;;;;;-0.03;87.32;101490.13;7396059;19;20018;-65
2022/04/11 05:43:26;;;;;;;16.42;10.73;;;;;;;0.03;87.33;101490.34;7395040;19;20015;-65
2022/04/11 05:45:54;;;;;;;17.88;9.35;;;;;;;0.07;86.98;101491.31;7396573;19;20014;-65
2022/04/11 05:48:22;;;;;;;16.40;10.20;;;;;;;0.11;86.97;101494.03;7396960;19;20482;-64
2022/04/11 05:50:50;;;;;;;21.55;13.70;;;;;;;0.16;86.91;101494.19;7395491;19;20389;-65
2022/04/11 05:53:20;;;;;;;19.77;12.02;;;;;;;0.21;86.92;101502.09;7396437;19;20074;-65
2022/04/11 05:55:51;;;;;;;14.38;9.73;;;;;;;0.26;86.69;101493.66;7396962;19;20015;-65
2022/04/11 05:58:19;;;;;;;16.67;10.00;;;;;;;0.30;86.52;101494.66;7397518;19;20022;-66
2022/04/11 06:00:54;;;;;;;17.08;9.18;;;;;;;0.36;86.35;101501.72;7396359;19;20035;-65
2022/04/11 06:03:22;;;;;;;15.07;9.90;;;;;;;0.41;86.37;101500.19;7396377;19;20049;-65
2022/04/11 06:05:50;;;;;;;18.77;10.38;;;;;;;0.47;86.27;101503.81;7393620;19;20277;-65
2022/04/11 06:08:18;;;;;;;22.55;10.80;;;;;;;0.54;86.13;101502.31;7393840;19;20015;-65
2022/04/11 06:10:46;;;;;;;15.35;9.27;;;;;;;0.59;85.96;101508.47;7394159;19;20127;-65
2022/04/11 06:13:17;;;;;;;15.75;10.05;;;;;;;0.66;85.72;101512.16;7394478;19;20022;-64
2022/04/11 06:15:45;;;;;;;17.73;11.13;;;;;;;0.73;85.71;101513.22;7394611;19;20432;-65
2022/04/11 06:18:13;;;;;;;19.13;10.52;;;;;;;0.80;85.76;101510.00;7396031;19;20024;-65
2022/04/11 06:20:43;;;;;;;19.67;10.50;;;;;;;0.88;85.74;101510.22;7394608;19;20162;-66
2022/04/11 06:23:11;;;;;;;18.33;10.55;;;;;;;0.94;85.52;101510.41;7395621;19;20044;-65
2022/04/11 06:25:39;;;;;;;21.30;11.45;;;;;;;1.04;85.53;101503.81;7393705;19;20041;-65
2022/04/11 06:28:08;;;;;;;17.02;10.82;;;;;;;1.10;85.25;101504.88;7392392;19;20027;-65
2022/04/11 06:30:38;;;;;;;18.08;10.32;;;;;;;1.19;84.89;101508.53;7393899;19;20074;-65
2022/04/11 06:33:07;;;;;;;22.65;11.07;;;;;;;1.26;84.63;101511.38;7394445;19;20078;-64
2022/04/11 06:35:35;;;;;;;17.42;10.45;;;;;;;1.34;84.40;101509.00;7394978;19;20036;-66
2022/04/11 06:38:03;;;;;;;16.67;11.05;;;;;;;1.42;84.30;101512.66;7394620;19;20022;-65
2022/04/11 06:40:31;;;;;;;13.88;9.80;;;;;;;1.51;84.09;101517.22;7393512;19;20035;-65
2022/04/11 06:42:59;;;;;;;15.25;10.10;;;;;;;1.59;83.88;101515.75;7395174;19;20022;-65
2022/04/11 06:45:27;;;;;;;22.17;12.75;;;;;;;1.70;83.98;101522.91;7395258;19;20035;-65
2022/04/11 06:47:58;;;;;;;18.98;10.27;;;;;;;1.78;83.85;101521.41;7393584;19;20018;-65
2022/04/11 06:50:26;;;;;;;16.10;9.77;;;;;;;1.89;83.50;101524.28;7393447;19;20026;-65
2022/04/11 06:52:54;;;;;;;13.07;8.50;;;;;;;2.00;83.37;101514.19;7393335;19;20502;-64
2022/04/11 06:55:22;;;;;;;12.88;8.35;;;;;;;2.08;82.82;101513.56;7392392;19;20503;-65
2022/04/11 06:57:50;;;;;;;17.85;9.38;;;;;;;2.20;83.25;101517.28;7393378;19;20400;-65
2022/04/11 07:00:19;;;;;;;13.63;8.77;;;;;;;2.27;83.17;101517.50;7393702;19;20474;-65
2022/04/11 07:02:47;;;;;;;11.90;7.95;;;;;;;2.38;82.83;101515.16;7394591;19;20022;-65
2022/04/11 07:05:18;;;;;;;17.30;7.97;;;;;;;2.51;82.45;101520.66;7392439;19;20023;-65
2022/04/11 07:07:46;;;;;;;14.43;7.53;;;;;;;2.60;82.57;101519.16;7393893;19;20431;-66
2022/04/11 07:10:14;;;;;;;10.23;6.57;;;;;;;2.71;82.43;101513.34;7392617;19;20027;-65
2022/04/11 07:12:44;;;;;;;11.60;7.13;;;;;;;2.80;81.17;101512.69;7392293;19;20019;-65
2022/04/11 07:15:12;;;;;;;10.80;6.80;;;;;;;2.91;81.17;101503.44;7391852;19;20023;-65
2022/04/11 07:17:40;;;;;;;13.07;6.93;;;;;;;3.03;80.76;101519.25;7391344;19;20014;-65
2022/04/11 07:20:09;;;;;;;11.82;6.57;;;;;;;3.18;79.35;101520.41;7397409;19;20023;-66
2022/04/11 07:22:40;;;;;;;11.23;6.30;;;;;;;3.33;80.21;101525.06;7398157;19;20074;-65
2022/04/11 07:25:09;;;;;;;12.52;7.35;;;;;;;3.43;79.81;101522.66;7401007;19;20022;-65
2022/04/11 07:27:37;;;;;;;16.00;7.50;;;;;;;3.53;79.60;101515.94;7397597;19;20470;-65
2022/04/11 07:30:06;;;;;;;10.38;6.70;;;;;;;3.64;79.40;101513.56;7400005;19;20026;-66
2022/04/11 07:32:34;;;;;;;8.50;5.65;;;;;;;3.73;78.53;101513.72;7399283;19;20534;-64
2022/04/11 07:35:02;;;;;;;16.40;6.60;;;;;;;3.85;78.36;101512.22;7401452;19;20416;-65
2022/04/11 07:37:33;;;;;;;14.35;5.45;;;;;;;3.96;77.08;101512.41;7399683;19;20031;-65
2022/04/11 07:40:04;;;;;;;13.05;5.57;;;;;;;4.07;77.37;101508.28;7397762;19;20022;-65
2022/04/11 07:42:32;;;;;;;10.80;5.93;;;;;;;4.17;77.28;101511.91;7397974;19;20028;-65
2022/04/11 07:45:00;;;;;;;9.15;5.55;;;;;;;4.26;77.46;101506.88;7397997;19;20018;-65
2022/04/11 07:47:29;;;;;;;10.70;5.95;;;;;;;4.36;77.15;101515.66;7400268;19;20022;-65
2022/04/11 07:49:57;;;;;;;7.90;4.35;;;;;;;4.45;76.70;101518.44;7399659;19;20022;-65
2022/04/11 07:52:25;;;;;;;8.30;3.80;;;;;;;4.56;76.39;101516.88;7399726;19;20035;-65
2022/04/11 07:54:53;;;;;;;6.25;4.00;;;;;;;4.66;75.52;101509.22;7400544;19;20473;-65
2022/04/11 07:57:24;;;;;;;7.50;3.83;;;;;;;4.78;74.08;101511.09;7399037;19;20023;-64
2022/04/11 07:59:52;;;;;;;8.00;3.75;;;;;;;4.89;72.54;101509.53;7399959;19;20018;-64
2022/04/11 08:02:26;;;;;;;11.65;3.78;;;;;;;5.02;72.95;101518.41;7400294;19;20087;-65
2022/04/11 08:04:54;;;;;;;5.88;2.80;;;;;;;5.12;71.81;101511.56;7397764;19;20086;-65
2022/04/11 08:07:23;;;;;;;6.75;2.35;;;;;;;5.25;71.37;101512.63;7397666;19;20074;-65
2022/04/11 08:09:51;;;;;;;6.28;2.38;;;;;;;5.34;69.49;101516.19;7397501;19;20022;-65
2022/04/11 08:12:20;;;;;;;4.72;2.40;;;;;;;5.46;66.95;101517.19;7398690;19;20506;-65
2022/04/11 08:14:50;;;;;;;6.35;2.35;;;;;;;5.58;67.29;101512.16;7399430;19;20506;-65
2022/04/11 08:17:19;;;;;;;10.15;4.05;;;;;;;5.68;67.89;101508.78;7397349;19;20044;-65
2022/04/11 08:19:47;;;;;;;6.50;2.30;;;;;;;5.80;66.40;101509.75;7399119;19;20027;-64
2022/04/11 08:22:15;;;;;;;8.35;2.05;;;;;;;5.88;66.32;101514.19;7397024;19;20086;-66
2022/04/11 08:24:43;;;;;;;7.95;2.40;;;;;;;5.98;62.49;101510.00;7396802;19;20083;-65
2022/04/11 08:27:11;;;;;;;5.13;1.88;;;;;;;6.09;63.96;101509.22;7398331;19;20015;-66
2022/04/11 08:29:39;;;;;;;5.07;2.13;;;;;;;6.17;63.20;101502.34;7397969;19;20027;-65
2022/04/11 08:32:12;;;;;;;10.05;3.30;;;;;;;6.26;63.58;101511.97;7397848;19;20482;-65
2022/04/11 08:34:40;;;;;;;5.43;1.60;;;;;;;6.32;63.56;101499.00;7398499;19;20036;-66
2022/04/11 08:37:08;;;;;;;3.33;1.30;;;;;;;6.39;62.86;101513.81;7398155;19;20032;-65
2022/04/11 08:39:37;;;;;;;3.83;2.10;;;;;;;6.44;62.32;101506.03;7396121;19;20026;-67
2022/04/11 08:42:07;;;;;;;4.65;2.03;;;;;;;6.49;62.36;101510.41;7399251;19;20011;-66
2022/04/11 08:44:35;;;;;;;5.63;1.88;;;;;;;6.58;61.30;101507.00;7399142;19;20023;-67
2022/04/11 08:47:07;;;;;;;2.90;1.88;;;;;;;6.66;57.08;101505.34;7398616;19;20010;-66
2022/04/11 08:49:38;;;;;;;4.60;1.58;;;;;;;6.78;60.19;101509.75;7399205;19;20097;-66
2022/04/11 08:52:08;;;;;;;4.65;2.08;;;;;;;6.87;60.27;101508.06;7398405;19;20478;-66
2022/04/11 08:54:37;;;;;;;3.67;1.42;;;;;;;6.94;60.39;101502.03;7398951;19;20015;-65
2022/04/11 08:57:06;;;;;;;3.90;2.35;;;;;;;7.00;58.68;101500.31;7398369;19;20019;-65
2022/04/11 08:59:35;;;;;;;8.85;4.35;;;;;;;7.06;56.28;101502.06;7395707;19;20067;-65
2022/04/11 09:02:03;;;;;;;5.32;2.20;;;;;;;7.15;58.87;101509.06;7398252;19;20022;-65
2022/04/11 09:04:37;;;;;;;6.85;2.20;;;;;;;7.23;58.30;101503.88;7396310;19;20035;-65
2022/04/11 09:07:08;;;;;;;4.75;1.70;;;;;;;7.31;54.01;101504.81;7396314;19;20079;-66
2022/04/11 09:09:40;;;;;;;3.97;1.98;;;;;;;7.38;51.95;101503.06;7397967;19;20548;-67
2022/04/11 09:12:12;;;;;;;3.47;2.15;;;;;;;7.44;55.68;101504.00;7395692;19;20021;-66
2022/04/11 09:14:40;;;;;;;6.50;1.75;;;;;;;7.51;56.95;101504.88;7397325;19;20514;-67
2022/04/11 09:17:09;;;;;;;6.72;1.70;;;;;;;7.51;56.04;101491.81;7397071;19;20362;-66
2022/04/11 09:19:38;;;;;;;3.20;1.48;;;;;;;7.56;55.68;101500.53;7395762;19;20026;-65
2022/04/11 09:22:10;;;;;;;2.13;1.38;;;;;;;7.60;53.20;101497.06;7397333;19;20014;-65
2022/04/11 09:24:38;;;;;;;4.05;1.30;;;;;;;7.68;53.47;101491.84;7395031;19;20429;-65
2022/04/11 09:27:07;;;;;;;5.07;2.50;;;;;;;7.75;49.93;101495.38;7394792;19;20079;-65
2022/04/11 09:29:35;;;;;;;3.03;1.25;;;;;;;7.82;53.40;101489.25;7397073;19;20018;-66
2022/04/11 09:32:08;;;;;;;5.00;1.77;;;;;;;7.87;50.38;101487.53;7394254;19;20397;-65
2022/04/11 09:34:37;;;;;;;4.27;1.80;;;;;;;7.94;51.97;101478.84;7397106;19;20011;-66
2022/04/11 09:37:10;;;;;;;4.40;2.10;;;;;;;7.99;50.29;101476.22;7396637;19;20547;-66
2022/04/11 09:39:44;;;;;;;4.10;2.20;;;;;;;8.10;50.63;101473.59;7395144;19;20047;-66
2022/04/11 09:42:12;;;;;;;4.22;2.15;;;;;;;8.22;50.56;101467.53;7394855;19;20010;-66
2022/04/11 09:44:40;;;;;;;4.80;1.67;;;;;;;8.35;49.57;101463.16;7396686;19;20478;-65
2022/04/11 09:47:08;;;;;;;2.72;1.20;;;;;;;8.52;48.40;101466.66;7394351;19;20423;-66
2022/04/11 09:49:38;;;;;;;2.90;1.10;;;;;;;8.68;47.48;101469.22;7394892;19;20027;-66
2022/04/11 09:52:12;;;;;;;2.45;1.10;;;;;;;8.80;46.98;101461.34;7395518;19;20506;-66
2022/04/11 09:54:42;;;;;;;4.25;1.67;;;;;;;8.87;45.77;101473.56;7395196;19;20010;-66
2022/04/11 09:57:12;;;;;;;2.78;1.30;;;;;;;8.91;48.12;101467.44;7397294;19;20018;-65
2022/04/11 09:59:41;;;;;;;6.05;2.97;;;;;;;8.92;44.96;101469.19;7395927;19;20502;-65
2022/04/11 10:02:11;;;;;;;5.70;2.58;;;;;;;8.95;48.00;101476.16;7396067;19;20031;-65
2022/04/11 10:04:40;;;;;;;5.70;2.13;;;;;;;8.95;47.94;101469.16;7395983;19;20031;-66
2022/04/11 10:07:14;;;;;;;5.47;1.95;;;;;;;8.98;46.97;101467.41;7393950;19;20015;-67
2022/04/11 10:09:43;;;;;;;6.30;2.10;;;;;;;9.02;47.90;101470.00;7395758;19;20285;-67
2022/04/11 10:12:11;;;;;;;4.63;1.67;;;;;;;9.02;47.39;101466.53;7393536;19;20486;-65
2022/04/11 10:14:42;;;;;;;3.70;1.42;;;;;;;9.03;47.20;101458.66;7393555;19;20035;-66
2022/04/11 10:17:10;;;;;;;3.92;1.50;;;;;;;9.08;45.95;101456.88;7394033;19;20018;-66
2022/04/11 10:19:42;;;;;;;4.85;1.58;;;;;;;9.08;42.67;101461.25;7393686;19;20022;-65
2022/04/11 10:22:24;;;;;;;4.85;1.48;;;;;;;9.11;42.48;101462.13;7394166;19;20070;-64
2022/04/11 10:25:04;;;;;;;4.53;1.10;;;;;;;9.12;42.26;101457.75;7395241;19;20500;-66
2022/04/11 10:27:33;;;;;;;5.30;1.92;;;;;;;9.18;42.50;101470.81;7395062;19;20026;-64
2022/04/11 10:30:03;;;;;;;5.45;2.67;;;;;;;9.24;43.91;101454.22;7394750;19;20482;-64
2022/04/11 10:32:35;;;;;;;4.60;1.52;;;;;;;9.28;42.70;101474.28;7393646;19;20024;-66
2022/04/11 10:35:05;;;;;;;2.38;1.75;;;;;;;9.27;43.81;101454.19;7393279;19;20014;-67
2022/04/11 10:38:03;;;;;;;2.80;1.65;;;;;;;9.31;43.82;101452.44;7394761;19;20081;-66
2022/04/11 10:40:34;;;;;;;4.88;1.50;;;;;;;9.34;44.06;101448.06;7393704;19;20426;-67
2022/04/11 10:43:16;;;;;;;4.65;2.20;;;;;;;9.37;42.78;101448.03;7395740;19;20495;-68
2022/04/11 10:45:46;;;;;;;3.17;1.40;;;;;;;9.41;42.01;101457.59;7396112;19;20022;-67
2022/04/11 10:48:17;;;;;;;3.60;1.55;;;;;;;9.42;44.36;101442.78;7394833;19;20022;-68
2022/04/11 10:50:46;;;;;;;3.05;2.20;;;;;;;9.48;44.56;101450.59;7393067;19;20019;-67
2022/04/11 10:53:22;;;;;;;6.50;1.98;;;;;;;9.50;44.25;101440.97;7391997;19;20073;-66
2022/04/11 10:56:02;;;;;;;2.80;1.63;;;;;;;9.55;41.67;101447.03;7394856;19;20043;-64
2022/04/11 10:58:49;;;;;;;3.13;1.42;;;;;;;9.59;43.06;101433.06;7394465;19;20018;-66
2022/04/11 11:01:38;;;;;;;4.32;1.45;;;;;;;9.66;44.10;101438.28;7392829;19;20010;-66
2022/04/11 11:04:21;;;;;;;3.30;1.35;;;;;;;9.73;41.11;101439.94;7394435;19;20026;-64
2022/04/11 11:06:49;;;;;;;3.53;1.98;;;;;;;9.72;40.14;101440.84;7394086;19;20541;-65
2022/04/11 11:09:18;;;;;;;3.33;1.70;;;;;;;9.71;43.84;101426.00;7393824;19;20027;-63
2022/04/11 11:11:47;;;;;;;3.67;1.50;;;;;;;9.72;44.19;101427.75;7392092;19;20019;-65
2022/04/11 11:14:45;;;;;;;4.82;1.77;;;;;;;9.77;42.97;101415.47;7391001;19;20381;-64
2022/04/11 11:17:13;;;;;;;6.95;3.50;;;;;;;9.81;44.26;101424.16;7391584;19;20055;-65
2022/04/11 11:20:10;;;;;;;4.88;1.70;;;;;;;9.85;42.18;101421.50;7390248;19;20035;-65
2022/04/11 11:23:17;;;;;;;4.07;1.55;;;;;;;9.92;42.69;101414.47;7390940;19;20014;-65
2022/04/11 11:25:46;;;;;;;3.88;1.38;;;;;;;9.98;43.82;101419.66;7391034;19;20019;-65
2022/04/11 11:28:15;;;;;;;3.20;1.60;;;;;;;10.00;44.16;101412.66;7391171;19;20031;-66
2022/04/11 11:30:44;;;;;;;5.03;1.35;;;;;;;10.07;44.31;101416.09;7392600;19;20014;-66
2022/04/11 11:33:16;;;;;;;3.05;1.55;;;;;;;10.13;43.94;101404.69;7393042;19;20070;-66
2022/04/11 11:35:52;;;;;;;4.45;2.05;;;;;;;10.21;42.52;101413.34;7390805;19;20019;-66
2022/04/11 11:38:25;;;;;;;6.38;3.22;;;;;;;10.27;43.36;101408.91;7393269;19;20023;-66